Weather at Barcelona International Airport

Public forecast

Using degrees Celsius for public forecast. Weather courtesy of forecast.io.

Current aviation weather report (METAR) for Barcelona International Airport

Retrieved 2020/10/19 14:30 UTC (30 minutes ago):

LEBL 191430Z 20007KT 9999 SCT030 20/15 Q1020 NOSIG

Aviation forecast (TAF) for Barcelona International Airport

Retrieved 2020/10/19 12:27 UTC (3 hours ago):

TAF LEBL 191100Z 1912/2012 20008KT 9999 FEW030 TX22/1912Z TN16/2006Z TEMPO 1912/1915 BKN025 BECMG 1918/1920 VRB03KT BECMG 2010/2012 13008KT